Time;durP1;ratioP1;P1;durP2;ratioP2;P2;SDS_P1;SDS_P2;PMS_P1;PMS_P2;Temp;Humidity;BMP_temperature;BMP_pressure;BME280_temperature;BME280_humidity;BME280_pressure;Samples;Min_cycle;Max_cycle;Signal;HPM_P1;HPM_P2
2024/02/23 00:01:34;;;;;;;;;;;18.20;44.50;;;;;;1570297;74;737;-74
2024/02/23 00:03:36;;;;;;;;;;;18.20;44.50;;;;;;1563507;74;671;-77
2024/02/23 00:05:38;;;;;;;;;;;18.20;44.50;;;;;;1577061;74;730;-77
2024/02/23 00:07:40;;;;;;;;;;;18.20;44.50;;;;;;1574952;74;743;-74
2024/02/23 00:09:42;;;;;;;;;;;18.20;44.50;;;;;;1572230;74;1151;-73
2024/02/23 00:11:49;;;;;;;;;;;18.20;44.40;;;;;;1577161;74;1950;-75
2024/02/23 00:13:50;;;;;;;;;;;18.20;44.50;;;;;;1572996;74;1702;-74
2024/02/23 00:15:52;;;;;;;;;;;18.20;44.40;;;;;;1567457;74;679;-73
2024/02/23 00:17:54;;;;;;;;;;;18.20;44.50;;;;;;1562413;74;653;-75
2024/02/23 00:19:56;;;;;;;;;;;18.20;44.40;;;;;;1567046;74;1169;-79
2024/02/23 00:21:59;;;;;;;;;;;18.20;44.40;;;;;;1568015;74;694;-73
2024/02/23 00:24:01;;;;;;;;;;;18.20;44.40;;;;;;1569982;74;730;-75
2024/02/23 00:26:03;;;;;;;;;;;18.10;44.40;;;;;;1573538;74;653;-76
2024/02/23 00:28:05;;;;;;;;;;;18.20;44.40;;;;;;1571161;74;713;-75
2024/02/23 00:30:07;;;;;;;;;;;18.20;44.40;;;;;;1577716;74;1930;-75
2024/02/23 00:32:09;;;;;;;;;;;18.20;44.40;;;;;;1563191;74;641;-74
2024/02/23 00:34:13;;;;;;;;;;;18.20;44.40;;;;;;1575424;74;667;-75
2024/02/23 00:36:14;;;;;;;;;;;18.20;44.40;;;;;;1567533;74;705;-74
2024/02/23 00:38:16;;;;;;;;;;;18.20;44.40;;;;;;1579306;74;582;-77
2024/02/23 00:40:18;;;;;;;;;;;18.20;44.40;;;;;;1569562;74;1148;-74
2024/02/23 00:42:20;;;;;;;;;;;18.20;44.40;;;;;;1568386;74;762;-73
2024/02/23 00:44:22;;;;;;;;;;;18.20;44.40;;;;;;1568559;74;722;-78
2024/02/23 00:46:24;;;;;;;;;;;18.10;44.40;;;;;;1570432;75;671;-75
2024/02/23 00:48:26;;;;;;;;;;;18.20;44.30;;;;;;1575742;74;1584;-78
2024/02/23 00:50:28;;;;;;;;;;;18.20;44.40;;;;;;1567345;74;1931;-75
2024/02/23 00:52:30;;;;;;;;;;;18.10;44.30;;;;;;1574760;74;665;-73
2024/02/23 00:54:32;;;;;;;;;;;18.20;44.30;;;;;;1568614;74;719;-73
2024/02/23 00:56:35;;;;;;;;;;;18.20;44.30;;;;;;1584077;74;682;-73
2024/02/23 00:58:37;;;;;;;;;;;18.10;44.30;;;;;;1570291;74;695;-76
2024/02/23 01:00:39;;;;;;;;;;;18.10;44.30;;;;;;1570753;74;1142;-76
2024/02/23 01:02:41;;;;;;;;;;;18.20;44.30;;;;;;1578566;74;690;-76
2024/02/23 01:04:43;;;;;;;;;;;18.10;44.20;;;;;;1567836;75;728;-75
2024/02/23 01:06:44;;;;;;;;;;;18.20;44.30;;;;;;1567256;74;693;-74
2024/02/23 01:08:47;;;;;;;;;;;18.10;44.30;;;;;;1578796;74;756;-77
2024/02/23 01:10:49;;;;;;;;;;;18.20;44.20;;;;;;1571158;74;1926;-74
2024/02/23 01:12:51;;;;;;;;;;;18.10;44.20;;;;;;1581500;74;704;-76
2024/02/23 01:14:53;;;;;;;;;;;18.20;44.20;;;;;;1576917;74;628;-76
2024/02/23 01:16:55;;;;;;;;;;;18.10;44.20;;;;;;1563824;74;714;-77
2024/02/23 01:19:00;;;;;;;;;;;18.20;44.20;;;;;;1574993;74;988;-77
2024/02/23 01:21:02;;;;;;;;;;;18.10;44.20;;;;;;1577967;74;721;-75
2024/02/23 01:23:04;;;;;;;;;;;18.20;44.20;;;;;;1590773;74;542;-73
2024/02/23 01:25:06;;;;;;;;;;;18.20;44.20;;;;;;1579375;74;641;-77
2024/02/23 01:27:08;;;;;;;;;;;18.10;44.20;;;;;;1579482;74;667;-77
2024/02/23 01:29:10;;;;;;;;;;;18.20;44.30;;;;;;1579623;74;1145;-75
2024/02/23 01:31:13;;;;;;;;;;;18.20;44.20;;;;;;1579049;74;1968;-74
2024/02/23 01:33:15;;;;;;;;;;;18.20;44.20;;;;;;1578304;74;614;-75
2024/02/23 01:35:17;;;;;;;;;;;18.20;44.20;;;;;;1573471;74;608;-72
2024/02/23 01:37:18;;;;;;;;;;;18.20;44.20;;;;;;1575002;74;755;-75
2024/02/23 01:39:20;;;;;;;;;;;18.20;44.20;;;;;;1580701;74;1121;-76
2024/02/23 01:41:23;;;;;;;;;;;18.20;44.20;;;;;;1579519;74;841;-79
2024/02/23 01:43:25;;;;;;;;;;;18.20;44.10;;;;;;1578226;74;734;-78
2024/02/23 01:45:27;;;;;;;;;;;18.10;44.20;;;;;;1572912;74;663;-77
2024/02/23 01:47:29;;;;;;;;;;;18.20;44.20;;;;;;1569995;74;661;-75
2024/02/23 01:49:33;;;;;;;;;;;18.10;44.10;;;;;;1584101;74;1148;-74
2024/02/23 01:51:34;;;;;;;;;;;18.10;44.10;;;;;;1577368;74;1923;-77
2024/02/23 01:53:36;;;;;;;;;;;18.20;44.20;;;;;;1568109;74;790;-75
2024/02/23 01:55:38;;;;;;;;;;;18.20;44.20;;;;;;1576329;74;679;-74
2024/02/23 01:57:40;;;;;;;;;;;18.20;44.20;;;;;;1582544;74;674;-75
2024/02/23 01:59:42;;;;;;;;;;;18.20;44.20;;;;;;1590254;74;1111;-75
2024/02/23 02:01:44;;;;;;;;;;;18.20;44.20;;;;;;1581590;74;705;-74
2024/02/23 02:03:46;;;;;;;;;;;18.20;44.20;;;;;;1578012;74;712;-74
2024/02/23 02:05:49;;;;;;;;;;;18.20;44.20;;;;;;1574967;74;689;-76
2024/02/23 02:07:53;;;;;;;;;;;18.20;44.20;;;;;;1571904;74;747;-75
2024/02/23 02:09:54;;;;;;;;;;;18.10;44.20;;;;;;1570426;74;1148;-76
2024/02/23 02:11:56;;;;;;;;;;;18.20;44.20;;;;;;1582470;74;1927;-75
2024/02/23 02:13:58;;;;;;;;;;;18.20;44.10;;;;;;1568516;74;551;-75
2024/02/23 02:16:01;;;;;;;;;;;18.10;44.20;;;;;;1582432;74;594;-74
2024/02/23 02:18:03;;;;;;;;;;;18.20;44.10;;;;;;1585405;74;685;-77
2024/02/23 02:20:06;;;;;;;;;;;18.20;44.10;;;;;;1573672;74;1141;-73
2024/02/23 02:22:08;;;;;;;;;;;18.10;44.10;;;;;;1573059;74;761;-76
2024/02/23 02:24:09;;;;;;;;;;;18.20;44.20;;;;;;1575245;74;729;-76
2024/02/23 02:26:11;;;;;;;;;;;18.20;44.10;;;;;;1573322;74;660;-76
2024/02/23 02:28:13;;;;;;;;;;;18.20;44.20;;;;;;1583040;74;743;-76
2024/02/23 02:30:15;;;;;;;;;;;18.10;44.20;;;;;;1585979;74;1162;-76
2024/02/23 02:32:18;;;;;;;;;;;18.10;44.20;;;;;;1590815;74;1940;-74
2024/02/23 02:34:19;;;;;;;;;;;18.20;44.10;;;;;;1582775;74;678;-74
2024/02/23 02:36:21;;;;;;;;;;;18.10;44.10;;;;;;1578248;74;697;-75
2024/02/23 02:38:23;;;;;;;;;;;18.20;44.10;;;;;;1591165;74;747;-75
2024/02/23 02:40:25;;;;;;;;;;;18.20;44.10;;;;;;1572457;74;1603;-80
2024/02/23 02:42:28;;;;;;;;;;;18.10;44.10;;;;;;1581129;74;703;-76
2024/02/23 02:44:30;;;;;;;;;;;18.10;44.10;;;;;;1581469;74;683;-72
2024/02/23 02:46:32;;;;;;;;;;;18.20;44.10;;;;;;1589979;74;691;-74
2024/02/23 02:48:34;;;;;;;;;;;18.20;44.10;;;;;;1586574;74;671;-74
2024/02/23 02:50:36;;;;;;;;;;;18.10;44.10;;;;;;1574528;74;1067;-73
2024/02/23 02:52:38;;;;;;;;;;;18.20;44.10;;;;;;1584548;74;1938;-77
2024/02/23 02:54:39;;;;;;;;;;;18.20;44.10;;;;;;1587805;74;547;-73
2024/02/23 02:56:46;;;;;;;;;;;18.10;44.10;;;;;;1568095;74;845;-78
2024/02/23 02:58:47;;;;;;;;;;;18.10;44.00;;;;;;1568444;74;660;-76
2024/02/23 03:00:49;;;;;;;;;;;18.20;44.00;;;;;;1581870;74;1061;-75
2024/02/23 03:02:51;;;;;;;;;;;18.10;44.00;;;;;;1580360;74;729;-75
2024/02/23 03:04:55;;;;;;;;;;;18.20;44.10;;;;;;1585256;74;719;-75
2024/02/23 03:06:57;;;;;;;;;;;18.20;44.00;;;;;;1579462;74;632;-75
2024/02/23 03:08:58;;;;;;;;;;;18.10;44.00;;;;;;1571984;74;679;-77
2024/02/23 03:11:00;;;;;;;;;;;18.10;43.90;;;;;;1583647;74;1945;-72
2024/02/23 03:13:02;;;;;;;;;;;18.20;44.00;;;;;;1586088;74;660;-76
2024/02/23 03:15:05;;;;;;;;;;;18.20;44.00;;;;;;1589973;74;650;-73
2024/02/23 03:17:10;;;;;;;;;;;18.10;44.00;;;;;;1574805;74;584;-78
2024/02/23 03:19:11;;;;;;;;;;;18.20;43.90;;;;;;1578698;74;1122;-74
2024/02/23 03:21:15;;;;;;;;;;;18.20;44.00;;;;;;1585051;74;1083;-75
2024/02/23 03:23:17;;;;;;;;;;;18.00;43.90;;;;;;1578721;74;763;-75
2024/02/23 03:25:18;;;;;;;;;;;18.20;43.90;;;;;;1579152;74;728;-74
2024/02/23 03:27:20;;;;;;;;;;;18.10;44.00;;;;;;1578817;74;797;-74
2024/02/23 03:29:29;;;;;;;;;;;18.10;44.00;;;;;;1569675;74;1181;-75
2024/02/23 03:31:26;;;;;;;;;;;18.20;43.90;;;;;;1560317;74;1927;-75
2024/02/23 03:33:28;;;;;;;;;;;18.20;44.00;;;;;;1564084;74;655;-76
2024/02/23 03:35:30;;;;;;;;;;;18.20;43.90;;;;;;1572162;74;1589;-75
2024/02/23 03:37:32;;;;;;;;;;;18.20;43.90;;;;;;1571345;74;690;-76
2024/02/23 03:39:34;;;;;;;;;;;18.20;43.90;;;;;;1577122;74;1108;-74
2024/02/23 03:41:36;;;;;;;;;;;18.20;44.00;;;;;;1574266;74;697;-75
2024/02/23 03:43:38;;;;;;;;;;;18.20;43.90;;;;;;1575484;74;742;-75
2024/02/23 03:45:40;;;;;;;;;;;18.20;43.90;;;;;;1570186;75;611;-72
2024/02/23 03:47:42;;;;;;;;;;;18.20;43.90;;;;;;1562648;75;721;-72
2024/02/23 03:49:44;;;;;;;;;;;18.10;43.90;;;;;;1570584;74;1149;-75
2024/02/23 03:51:45;;;;;;;;;;;18.10;43.90;;;;;;1567930;74;1947;-77
2024/02/23 03:53:47;;;;;;;;;;;18.10;43.90;;;;;;1570679;74;656;-74
2024/02/23 03:55:49;;;;;;;;;;;18.10;43.90;;;;;;1569956;74;728;-72
2024/02/23 03:57:51;;;;;;;;;;;18.20;43.90;;;;;;1580933;74;772;-75
2024/02/23 03:59:53;;;;;;;;;;;18.20;43.90;;;;;;1574607;74;1163;-72
2024/02/23 04:01:55;;;;;;;;;;;18.20;43.90;;;;;;1572024;74;610;-75
2024/02/23 04:03:57;;;;;;;;;;;18.20;43.90;;;;;;1569735;74;698;-76
2024/02/23 04:05:59;;;;;;;;;;;18.20;43.90;;;;;;1575519;74;651;-73
2024/02/23 04:08:01;;;;;;;;;;;18.20;43.90;;;;;;1560252;74;648;-76
2024/02/23 04:10:04;;;;;;;;;;;18.20;43.90;;;;;;1571050;75;1205;-75
2024/02/23 04:12:07;;;;;;;;;;;18.20;43.90;;;;;;1580400;74;1900;-75
2024/02/23 04:14:09;;;;;;;;;;;18.20;43.90;;;;;;1581018;74;693;-75
2024/02/23 04:16:10;;;;;;;;;;;18.20;43.90;;;;;;1578240;75;535;-74
2024/02/23 04:18:12;;;;;;;;;;;18.20;43.90;;;;;;1568212;74;697;-78
2024/02/23 04:20:14;;;;;;;;;;;18.20;43.90;;;;;;1572057;74;1130;-80
2024/02/23 04:22:16;;;;;;;;;;;18.10;43.90;;;;;;1571391;74;544;-75
2024/02/23 04:24:18;;;;;;;;;;;18.20;43.90;;;;;;1567463;74;697;-78
2024/02/23 04:26:20;;;;;;;;;;;18.20;43.90;;;;;;1566761;74;754;-77
2024/02/23 04:28:22;;;;;;;;;;;18.10;43.90;;;;;;1567097;74;636;-74
2024/02/23 04:30:24;;;;;;;;;;;18.20;43.90;;;;;;1582403;74;1138;-74
2024/02/23 04:32:26;;;;;;;;;;;18.10;43.90;;;;;;1559066;74;1928;-74
2024/02/23 04:34:28;;;;;;;;;;;18.20;43.90;;;;;;1565901;74;668;-73
2024/02/23 04:36:30;;;;;;;;;;;18.20;43.90;;;;;;1566654;74;692;-77
2024/02/23 04:38:31;;;;;;;;;;;18.20;43.90;;;;;;1569059;74;741;-78
2024/02/23 04:40:33;;;;;;;;;;;18.20;43.90;;;;;;1583919;74;1207;-76
2024/02/23 04:42:35;;;;;;;;;;;18.10;43.90;;;;;;1572793;74;667;-78
2024/02/23 04:44:37;;;;;;;;;;;18.20;43.90;;;;;;1563346;74;755;-75
2024/02/23 04:46:39;;;;;;;;;;;18.20;43.90;;;;;;1574986;74;685;-76
2024/02/23 04:48:41;;;;;;;;;;;18.10;43.90;;;;;;1577056;74;688;-73
2024/02/23 04:50:43;;;;;;;;;;;18.20;43.90;;;;;;1568328;74;1176;-73
2024/02/23 04:52:45;;;;;;;;;;;18.20;43.90;;;;;;1577600;74;1945;-73
2024/02/23 04:54:47;;;;;;;;;;;18.20;43.90;;;;;;1561478;74;666;-73
2024/02/23 04:56:50;;;;;;;;;;;18.20;43.90;;;;;;1569276;74;666;-73
2024/02/23 04:58:52;;;;;;;;;;;18.20;43.90;;;;;;1560089;74;710;-76
2024/02/23 05:00:55;;;;;;;;;;;18.20;43.90;;;;;;1556826;74;1067;-73
2024/02/23 05:02:57;;;;;;;;;;;18.20;43.90;;;;;;1570841;74;760;-76
2024/02/23 05:04:59;;;;;;;;;;;18.10;43.90;;;;;;1572258;74;813;-75
2024/02/23 05:07:01;;;;;;;;;;;18.20;43.90;;;;;;1581844;74;674;-78
2024/02/23 05:09:03;;;;;;;;;;;18.20;43.90;;;;;;1572240;74;1125;-73
2024/02/23 05:11:05;;;;;;;;;;;18.10;43.90;;;;;;1576159;74;690;-77
2024/02/23 05:13:07;;;;;;;;;;;18.20;43.90;;;;;;1573658;74;1951;-73
2024/02/23 05:15:09;;;;;;;;;;;18.20;43.90;;;;;;1577478;74;682;-73
2024/02/23 05:17:11;;;;;;;;;;;18.20;43.90;;;;;;1586208;74;665;-77
2024/02/23 05:19:12;;;;;;;;;;;18.10;43.90;;;;;;1571223;74;1165;-77
2024/02/23 05:21:17;;;;;;;;;;;18.20;43.90;;;;;;1571190;74;1099;-73
2024/02/23 05:23:19;;;;;;;;;;;18.20;43.90;;;;;;1574391;74;847;-74
2024/02/23 05:25:21;;;;;;;;;;;18.10;43.90;;;;;;1562019;74;576;-76
2024/02/23 05:27:23;;;;;;;;;;;18.10;43.90;;;;;;1565596;74;745;-74
2024/02/23 05:29:25;;;;;;;;;;;18.20;43.90;;;;;;1580259;74;1452;-78
2024/02/23 05:31:28;;;;;;;;;;;18.10;43.90;;;;;;1570147;74;649;-75
2024/02/23 05:33:30;;;;;;;;;;;18.20;43.90;;;;;;1556628;74;2020;-74
2024/02/23 05:35:32;;;;;;;;;;;18.20;43.90;;;;;;1570970;74;666;-75
2024/02/23 05:37:34;;;;;;;;;;;18.20;43.90;;;;;;1575153;74;583;-73
2024/02/23 05:39:37;;;;;;;;;;;18.10;43.90;;;;;;1567048;74;1109;-75
2024/02/23 05:41:39;;;;;;;;;;;18.20;43.90;;;;;;1575861;74;711;-77
2024/02/23 05:43:41;;;;;;;;;;;18.10;44.00;;;;;;1564247;75;794;-76
2024/02/23 05:45:44;;;;;;;;;;;18.20;43.90;;;;;;1571285;74;761;-73
2024/02/23 05:47:46;;;;;;;;;;;18.10;43.90;;;;;;1571224;74;783;-75
2024/02/23 05:49:47;;;;;;;;;;;18.20;43.90;;;;;;1570556;74;1172;-77
2024/02/23 05:51:49;;;;;;;;;;;18.10;43.90;;;;;;1568335;74;762;-74
2024/02/23 05:53:51;;;;;;;;;;;18.10;43.90;;;;;;1583056;74;1950;-74
2024/02/23 05:55:53;;;;;;;;;;;18.10;43.90;;;;;;1578700;74;760;-74
2024/02/23 05:57:56;;;;;;;;;;;18.20;43.90;;;;;;1563975;74;732;-75
2024/02/23 05:59:58;;;;;;;;;;;18.20;43.90;;;;;;1583816;74;1108;-75
2024/02/23 06:01:59;;;;;;;;;;;18.20;43.90;;;;;;1577360;74;673;-73
2024/02/23 06:04:02;;;;;;;;;;;18.10;43.90;;;;;;1575269;74;696;-75
2024/02/23 06:06:05;;;;;;;;;;;18.10;43.90;;;;;;1576175;74;664;-75
2024/02/23 06:08:07;;;;;;;;;;;18.10;43.90;;;;;;1565030;74;1748;-76
2024/02/23 06:10:10;;;;;;;;;;;18.10;43.90;;;;;;1582639;74;1154;-74
2024/02/23 06:12:12;;;;;;;;;;;18.20;43.90;;;;;;1583544;74;1913;-76
2024/02/23 06:14:14;;;;;;;;;;;18.10;44.00;;;;;;1574242;74;697;-75
2024/02/23 06:16:15;;;;;;;;;;;18.20;43.90;;;;;;1571488;74;689;-76
2024/02/23 06:18:17;;;;;;;;;;;18.10;44.00;;;;;;1575274;74;756;-77
2024/02/23 06:20:19;;;;;;;;;;;18.10;43.90;;;;;;1579066;74;1160;-76
2024/02/23 06:22:22;;;;;;;;;;;18.20;43.90;;;;;;1580339;74;1296;-77
2024/02/23 06:24:24;;;;;;;;;;;18.10;44.00;;;;;;1575507;74;1654;-75
2024/02/23 06:26:25;;;;;;;;;;;18.20;43.90;;;;;;1566644;74;697;-76
2024/02/23 06:28:27;;;;;;;;;;;18.10;43.90;;;;;;1578353;74;710;-77
2024/02/23 06:30:29;;;;;;;;;;;18.10;43.90;;;;;;1574001;74;1179;-79
2024/02/23 06:32:31;;;;;;;;;;;18.10;43.90;;;;;;1576290;74;1946;-75
2024/02/23 06:34:33;;;;;;;;;;;18.10;43.90;;;;;;1577698;74;644;-75
2024/02/23 06:36:35;;;;;;;;;;;18.10;43.90;;;;;;1584426;74;683;-75
2024/02/23 06:38:37;;;;;;;;;;;18.20;43.90;;;;;;1567993;74;758;-74
2024/02/23 06:40:39;;;;;;;;;;;18.20;43.90;;;;;;1573799;74;1124;-73
2024/02/23 06:42:41;;;;;;;;;;;18.10;43.90;;;;;;1580200;74;621;-80
2024/02/23 06:44:43;;;;;;;;;;;18.20;43.90;;;;;;1576687;74;686;-73
2024/02/23 06:46:45;;;;;;;;;;;18.20;43.90;;;;;;1590247;74;674;-75
2024/02/23 06:48:47;;;;;;;;;;;18.20;43.90;;;;;;1583885;74;801;-74
2024/02/23 06:50:48;;;;;;;;;;;18.20;43.90;;;;;;1573039;74;1166;-75
2024/02/23 06:52:50;;;;;;;;;;;18.20;43.90;;;;;;1584503;74;1937;-73
2024/02/23 06:54:52;;;;;;;;;;;18.10;43.90;;;;;;1592649;74;658;-75
2024/02/23 06:56:54;;;;;;;;;;;18.30;44.00;;;;;;1574314;74;661;-73
2024/02/23 06:58:56;;;;;;;;;;;18.30;43.90;;;;;;1578055;74;739;-78
2024/02/23 07:00:58;;;;;;;;;;;18.20;43.90;;;;;;1569194;74;1260;-75
2024/02/23 07:03:03;;;;;;;;;;;18.30;43.90;;;;;;1577845;74;698;-75
2024/02/23 07:05:08;;;;;;;;;;;18.30;43.90;;;;;;1577190;74;968;-77
2024/02/23 07:07:08;;;;;;;;;;;18.30;43.90;;;;;;1577735;74;1327;-75
2024/02/23 07:09:11;;;;;;;;;;;18.30;43.90;;;;;;1583479;74;1155;-73
2024/02/23 07:11:13;;;;;;;;;;;18.30;43.90;;;;;;1583147;74;628;-75
2024/02/23 07:13:14;;;;;;;;;;;18.30;43.90;;;;;;1574910;74;1926;-75
2024/02/23 07:15:16;;;;;;;;;;;18.30;43.90;;;;;;1574824;74;707;-73
2024/02/23 07:17:19;;;;;;;;;;;18.30;43.90;;;;;;1583489;74;744;-74
2024/02/23 07:19:21;;;;;;;;;;;18.30;43.90;;;;;;1584716;74;1173;-72
2024/02/23 07:21:22;;;;;;;;;;;18.30;43.90;;;;;;1574005;74;1314;-73
2024/02/23 07:23:24;;;;;;;;;;;18.30;43.90;;;;;;1585153;74;996;-74
2024/02/23 07:25:26;;;;;;;;;;;18.30;43.90;;;;;;1579360;74;630;-77
2024/02/23 07:27:29;;;;;;;;;;;18.30;43.80;;;;;;1583189;74;702;-77
2024/02/23 07:29:31;;;;;;;;;;;18.40;43.80;;;;;;1578792;74;1199;-77
2024/02/23 07:31:33;;;;;;;;;;;18.30;43.90;;;;;;1575830;74;685;-74
2024/02/23 07:33:36;;;;;;;;;;;18.30;43.80;;;;;;1581985;74;1922;-77
2024/02/23 07:35:38;;;;;;;;;;;18.30;43.80;;;;;;1580306;74;1091;-77
2024/02/23 07:37:40;;;;;;;;;;;18.30;43.80;;;;;;1576424;74;675;-73
2024/02/23 07:39:42;;;;;;;;;;;18.30;43.70;;;;;;1573643;74;1159;-75
2024/02/23 07:41:44;;;;;;;;;;;18.30;43.80;;;;;;1579708;74;613;-75
2024/02/23 07:43:46;;;;;;;;;;;18.40;43.70;;;;;;1571722;74;775;-74
2024/02/23 07:45:48;;;;;;;;;;;18.40;43.70;;;;;;1587298;74;816;-74
2024/02/23 07:47:50;;;;;;;;;;;18.40;43.60;;;;;;1566846;74;734;-77
2024/02/23 07:49:52;;;;;;;;;;;18.40;43.60;;;;;;1572956;74;1145;-77
2024/02/23 07:51:53;;;;;;;;;;;18.40;43.60;;;;;;1570487;74;656;-74
2024/02/23 07:53:55;;;;;;;;;;;18.40;43.60;;;;;;1576784;74;1927;-73
2024/02/23 07:55:59;;;;;;;;;;;18.40;43.60;;;;;;1579567;74;734;-73
2024/02/23 07:58:01;;;;;;;;;;;18.40;43.60;;;;;;1576863;74;626;-74
2024/02/23 08:00:04;;;;;;;;;;;18.30;43.60;;;;;;1573476;74;1101;-76
2024/02/23 08:02:05;;;;;;;;;;;18.40;43.60;;;;;;1572697;74;758;-73
2024/02/23 08:04:07;;;;;;;;;;;18.30;43.60;;;;;;1583323;74;686;-77
2024/02/23 08:06:09;;;;;;;;;;;18.40;43.50;;;;;;1574258;74;800;-80
2024/02/23 08:08:11;;;;;;;;;;;18.40;43.60;;;;;;1572237;74;508;-73
2024/02/23 08:10:13;;;;;;;;;;;18.40;43.50;;;;;;1572382;74;1105;-76
2024/02/23 08:12:15;;;;;;;;;;;18.40;43.50;;;;;;1577929;74;674;-73
2024/02/23 08:14:17;;;;;;;;;;;18.30;43.50;;;;;;1577659;74;1924;-77
2024/02/23 08:16:19;;;;;;;;;;;18.40;43.50;;;;;;1585462;74;715;-77
2024/02/23 08:18:26;;;;;;;;;;;18.30;43.50;;;;;;1573324;74;1426;-78
2024/02/23 08:20:25;;;;;;;;;;;18.40;43.50;;;;;;1579853;74;1418;-73
2024/02/23 08:22:26;;;;;;;;;;;18.30;43.60;;;;;;1534670;76;739;-74
2024/02/23 08:24:28;;;;;;;;;;;18.40;43.50;;;;;;1543524;76;987;-77
2024/02/23 08:26:30;;;;;;;;;;;18.40;43.50;;;;;;1534580;76;735;-76
2024/02/23 08:28:32;;;;;;;;;;;18.40;43.50;;;;;;1546324;76;824;-73
2024/02/23 08:30:34;;;;;;;;;;;18.40;43.50;;;;;;1572877;73;1103;-75
2024/02/23 08:32:37;;;;;;;;;;;18.30;43.50;;;;;;1578033;74;712;-74
2024/02/23 08:34:38;;;;;;;;;;;18.40;43.50;;;;;;1584241;74;1945;-73
2024/02/23 08:36:40;;;;;;;;;;;18.40;43.50;;;;;;1576387;74;683;-74
2024/02/23 08:38:42;;;;;;;;;;;18.40;43.50;;;;;;1573999;74;672;-77
2024/02/23 08:40:45;;;;;;;;;;;18.30;43.50;;;;;;1577553;74;1163;-73
2024/02/23 08:42:47;;;;;;;;;;;18.30;43.50;;;;;;1584488;74;760;-75
2024/02/23 08:44:49;;;;;;;;;;;18.40;43.50;;;;;;1578594;74;669;-74
2024/02/23 08:46:51;;;;;;;;;;;18.40;43.50;;;;;;1576982;74;712;-74
2024/02/23 08:48:52;;;;;;;;;;;18.30;43.50;;;;;;1577884;74;785;-75
2024/02/23 08:50:55;;;;;;;;;;;18.40;43.50;;;;;;1588562;74;1124;-77
2024/02/23 08:52:57;;;;;;;;;;;18.30;43.50;;;;;;1574728;74;656;-74
2024/02/23 08:55:00;;;;;;;;;;;18.40;43.40;;;;;;1583681;74;1935;-75
2024/02/23 08:57:03;;;;;;;;;;;18.30;43.40;;;;;;1578559;74;637;-72
2024/02/23 08:59:05;;;;;;;;;;;18.40;43.40;;;;;;1585304;74;1090;-74
2024/02/23 09:01:09;;;;;;;;;;;18.40;43.40;;;;;;1581901;74;679;-73
2024/02/23 09:03:11;;;;;;;;;;;18.30;43.40;;;;;;1586011;74;752;-75
2024/02/23 09:05:12;;;;;;;;;;;18.40;43.40;;;;;;1575855;74;783;-74
2024/02/23 09:07:14;;;;;;;;;;;18.40;43.40;;;;;;1583723;74;564;-79
2024/02/23 09:09:16;;;;;;;;;;;18.40;43.40;;;;;;1584208;74;1140;-78
2024/02/23 09:11:18;;;;;;;;;;;18.40;43.40;;;;;;1585596;74;694;-76
2024/02/23 09:13:20;;;;;;;;;;;18.40;43.40;;;;;;1574532;74;1945;-72
2024/02/23 09:15:22;;;;;;;;;;;18.30;43.40;;;;;;1576681;74;624;-76
2024/02/23 09:17:25;;;;;;;;;;;18.40;43.40;;;;;;1571033;74;713;-76
2024/02/23 09:19:27;;;;;;;;;;;18.40;43.40;;;;;;1575653;74;1131;-77
2024/02/23 09:21:29;;;;;;;;;;;18.80;43.60;;;;;;1582198;74;649;-75
2024/02/23 09:23:31;;;;;;;;;;;18.30;43.40;;;;;;1567379;74;968;-75
2024/02/23 09:25:32;;;;;;;;;;;18.30;43.40;;;;;;1567155;74;515;-76
2024/02/23 09:27:38;;;;;;;;;;;18.30;43.40;;;;;;1573056;74;653;-75
2024/02/23 09:29:38;;;;;;;;;;;18.30;43.40;;;;;;1571629;74;1153;-75
2024/02/23 09:31:40;;;;;;;;;;;18.30;43.40;;;;;;1566267;74;771;-74
2024/02/23 09:33:43;;;;;;;;;;;18.30;43.40;;;;;;1563954;74;1921;-74
2024/02/23 09:35:45;;;;;;;;;;;18.30;43.40;;;;;;1570928;74;674;-75
2024/02/23 09:37:47;;;;;;;;;;;18.30;43.40;;;;;;1572522;74;701;-74
2024/02/23 09:39:49;;;;;;;;;;;18.30;43.40;;;;;;1568827;74;1236;-76
2024/02/23 09:41:51;;;;;;;;;;;18.30;43.40;;;;;;1572303;74;1085;-75
2024/02/23 09:43:53;;;;;;;;;;;18.30;43.40;;;;;;1569510;74;792;-74
2024/02/23 09:45:54;;;;;;;;;;;18.30;43.40;;;;;;1574173;74;689;-71
2024/02/23 09:47:57;;;;;;;;;;;18.30;43.40;;;;;;1573988;74;719;-74
2024/02/23 09:49:59;;;;;;;;;;;18.30;43.40;;;;;;1562645;74;1168;-73
2024/02/23 09:52:00;;;;;;;;;;;18.30;43.40;;;;;;1568253;74;562;-74
2024/02/23 09:54:02;;;;;;;;;;;18.30;43.40;;;;;;1578508;74;1941;-76
2024/02/23 09:56:05;;;;;;;;;;;18.30;43.30;;;;;;1577377;74;682;-78
2024/02/23 09:58:07;;;;;;;;;;;18.30;43.40;;;;;;1567959;74;677;-77
2024/02/23 10:00:09;;;;;;;;;;;18.30;43.40;;;;;;1570084;74;1141;-77
2024/02/23 10:02:12;;;;;;;;;;;18.30;43.40;;;;;;1577773;74;686;-76
2024/02/23 10:04:15;;;;;;;;;;;18.30;43.40;;;;;;1574301;74;2193;-75
2024/02/23 10:06:17;;;;;;;;;;;18.30;43.40;;;;;;1585477;74;671;-77
2024/02/23 10:08:19;;;;;;;;;;;18.30;43.30;;;;;;1560361;74;675;-77
2024/02/23 10:10:26;;;;;;;;;;;18.30;43.40;;;;;;1577013;74;1502;-74
2024/02/23 10:12:28;;;;;;;;;;;18.30;43.40;;;;;;1570643;74;1293;-74
2024/02/23 10:14:30;;;;;;;;;;;18.30;43.40;;;;;;1498478;78;1931;-73
2024/02/23 10:16:32;;;;;;;;;;;18.30;43.40;;;;;;1490864;78;632;-78
2024/02/23 10:18:34;;;;;;;;;;;18.30;43.40;;;;;;1509730;77;684;-76
2024/02/23 10:20:37;;;;;;;;;;;18.30;43.40;;;;;;1512506;77;1129;-74
2024/02/23 10:22:39;;;;;;;;;;;18.40;43.40;;;;;;1506932;78;655;-75
2024/02/23 10:24:42;;;;;;;;;;;18.30;43.40;;;;;;1514678;77;1137;-75
2024/02/23 10:26:44;;;;;;;;;;;18.30;43.40;;;;;;1507971;77;707;-73
2024/02/23 10:28:50;;;;;;;;;;;18.40;43.40;;;;;;1515776;77;681;-75
2024/02/23 10:30:52;;;;;;;;;;;18.30;43.40;;;;;;1512051;77;1189;-74
2024/02/23 10:32:55;;;;;;;;;;;18.30;43.40;;;;;;1517746;77;617;-74
2024/02/23 10:34:58;;;;;;;;;;;18.30;43.40;;;;;;1521640;78;1945;-75
2024/02/23 10:37:00;;;;;;;;;;;18.30;43.40;;;;;;1525400;77;672;-75
2024/02/23 10:39:04;;;;;;;;;;;18.40;43.50;;;;;;1513986;78;1156;-76
2024/02/23 10:41:08;;;;;;;;;;;18.30;43.40;;;;;;1518424;77;729;-75
2024/02/23 10:43:13;;;;;;;;;;;18.30;43.40;;;;;;1507847;77;701;-75
2024/02/23 10:45:19;;;;;;;;;;;18.30;43.40;;;;;;1505275;78;711;-75
2024/02/23 10:47:21;;;;;;;;;;;18.30;43.40;;;;;;1513223;77;986;-78
2024/02/23 10:49:26;;;;;;;;;;;18.30;43.40;;;;;;1517539;77;1163;-75
2024/02/23 10:51:27;;;;;;;;;;;18.30;43.40;;;;;;1512757;78;1436;-76
2024/02/23 10:53:29;;;;;;;;;;;18.30;43.40;;;;;;1516545;77;850;-77
2024/02/23 10:55:31;;;;;;;;;;;18.40;43.50;;;;;;1514044;77;1926;-75
2024/02/23 10:57:33;;;;;;;;;;;18.30;43.40;;;;;;1518277;78;734;-73
2024/02/23 10:59:35;;;;;;;;;;;18.30;43.40;;;;;;1518233;78;1125;-75
2024/02/23 11:01:39;;;;;;;;;;;18.30;43.40;;;;;;1514002;77;677;-78
2024/02/23 11:03:41;;;;;;;;;;;18.30;43.50;;;;;;1506899;77;1085;-79
2024/02/23 11:05:43;;;;;;;;;;;18.30;43.40;;;;;;1516640;77;1474;-76
2024/02/23 11:07:51;;;;;;;;;;;18.30;43.40;;;;;;1514286;77;749;-78
2024/02/23 11:09:53;;;;;;;;;;;18.30;43.40;;;;;;1508848;78;1096;-73
2024/02/23 11:11:55;;;;;;;;;;;18.30;43.40;;;;;;1516599;77;662;-77
2024/02/23 11:13:57;;;;;;;;;;;18.30;43.40;;;;;;1518033;78;1927;-76
2024/02/23 11:16:03;;;;;;;;;;;18.30;43.40;;;;;;1510292;77;642;-79
2024/02/23 11:18:05;;;;;;;;;;;18.20;43.40;;;;;;1514745;78;732;-75
2024/02/23 11:20:08;;;;;;;;;;;18.20;43.30;;;;;;1511162;77;1137;-76
2024/02/23 11:22:10;;;;;;;;;;;18.20;43.40;;;;;;1519257;78;686;-73
2024/02/23 11:24:14;;;;;;;;;;;18.30;43.40;;;;;;1511068;77;688;-74
2024/02/23 11:26:16;;;;;;;;;;;18.30;43.40;;;;;;1514299;78;1707;-75
2024/02/23 11:28:27;;;;;;;;;;;18.30;43.40;;;;;;1515005;77;681;-74
2024/02/23 11:30:29;;;;;;;;;;;18.30;43.40;;;;;;1522051;77;1154;-75
2024/02/23 11:32:40;;;;;;;;;;;18.30;43.40;;;;;;1509610;77;711;-77
2024/02/23 11:34:42;;;;;;;;;;;18.30;43.40;;;;;;1519313;77;1906;-74
2024/02/23 11:36:44;;;;;;;;;;;18.30;43.40;;;;;;1527243;77;679;-75
2024/02/23 11:38:46;;;;;;;;;;;18.30;43.40;;;;;;1500187;78;962;-74
2024/02/23 11:40:48;;;;;;;;;;;18.20;43.30;;;;;;1505550;77;1104;-77
2024/02/23 11:42:50;;;;;;;;;;;18.20;43.40;;;;;;1512224;78;707;-78
2024/02/23 11:44:53;;;;;;;;;;;18.30;43.40;;;;;;1517102;76;735;-75
2024/02/23 11:46:55;;;;;;;;;;;18.30;43.40;;;;;;1523492;76;785;-74
2024/02/23 11:48:57;;;;;;;;;;;18.20;43.40;;;;;;1517720;76;709;-73
2024/02/23 11:50:59;;;;;;;;;;;18.30;43.40;;;;;;1505507;77;1176;-76
2024/02/23 11:53:01;;;;;;;;;;;18.20;43.30;;;;;;1505319;77;667;-75
2024/02/23 11:55:04;;;;;;;;;;;18.30;43.40;;;;;;1493759;79;1945;-75
2024/02/23 11:57:06;;;;;;;;;;;18.20;43.30;;;;;;1558281;74;743;-75
2024/02/23 11:59:09;;;;;;;;;;;18.30;43.40;;;;;;1528599;76;1175;-74
2024/02/23 12:01:11;;;;;;;;;;;18.30;43.40;;;;;;1560663;75;685;-75
2024/02/23 12:03:13;;;;;;;;;;;18.30;43.40;;;;;;1560224;75;1475;-75
2024/02/23 12:05:15;;;;;;;;;;;18.30;43.40;;;;;;1554337;75;751;-73
2024/02/23 12:07:17;;;;;;;;;;;18.30;43.40;;;;;;1553640;75;663;-74
2024/02/23 12:09:19;;;;;;;;;;;18.30;43.40;;;;;;1571492;75;1160;-74